createdAt,value
2023-03-19T00:00:53.872Z,88.32
2023-03-19T00:03:22.233Z,88.01
2023-03-19T00:05:53.809Z,88.50
2023-03-19T00:08:23.719Z,89.20
2023-03-19T00:10:52.268Z,89.65
2023-03-19T00:13:21.013Z,89.10
2023-03-19T00:15:49.023Z,89.36
2023-03-19T00:18:17.133Z,89.86
2023-03-19T00:20:44.937Z,91.11
2023-03-19T00:23:13.582Z,91.74
2023-03-19T00:25:42.240Z,91.57
2023-03-19T00:28:10.210Z,92.07
2023-03-19T00:30:38.329Z,92.97
2023-03-19T00:33:06.782Z,93.76
2023-03-19T00:35:34.751Z,94.80
2023-03-19T00:38:03.012Z,95.99
2023-03-19T00:40:33.605Z,95.94
2023-03-19T00:43:01.740Z,95.86
2023-03-19T00:45:30.996Z,95.61
2023-03-19T00:47:59.916Z,96.31
2023-03-19T00:50:27.943Z,96.34
2023-03-19T00:52:55.824Z,95.76
2023-03-19T00:55:25.725Z,95.34
2023-03-19T00:57:53.594Z,96.02
2023-03-19T01:00:22.610Z,95.53
2023-03-19T01:02:50.674Z,97.11
2023-03-19T01:05:18.889Z,97.90
2023-03-19T01:07:46.933Z,97.24
2023-03-19T01:10:22.195Z,96.41
2023-03-19T01:12:51.530Z,95.86
2023-03-19T01:15:19.967Z,94.17
2023-03-19T01:17:47.948Z,93.31
2023-03-19T01:20:18.785Z,94.30
2023-03-19T01:22:47.379Z,95.78
2023-03-19T01:25:14.958Z,95.09
2023-03-19T01:27:52.424Z,94.29
2023-03-19T01:30:21.786Z,93.61
2023-03-19T01:33:08.299Z,92.83
2023-03-19T01:36:02.584Z,94.51
2023-03-19T01:38:36.767Z,96.38
2023-03-19T01:41:07.978Z,97.11
2023-03-19T01:43:36.700Z,96.56
2023-03-19T01:46:38.187Z,95.45
2023-03-19T01:49:20.135Z,94.13
2023-03-19T01:51:54.566Z,93.36
2023-03-19T01:54:49.260Z,91.92
2023-03-19T01:57:36.802Z,91.94
2023-03-19T02:00:12.571Z,92.17
2023-03-19T02:02:53.763Z,94.22
2023-03-19T02:05:57.872Z,92.62
2023-03-19T02:08:26.079Z,92.36
2023-03-19T02:10:56.149Z,92.04
2023-03-19T02:13:24.748Z,92.31
2023-03-19T02:15:53.766Z,91.67
2023-03-19T02:18:24.595Z,93.95
2023-03-19T02:21:10.338Z,94.05
2023-03-19T02:24:02.873Z,92.92
2023-03-19T02:26:58.010Z,92.29
2023-03-19T02:29:26.598Z,94.12
2023-03-19T02:31:54.925Z,94.79
2023-03-19T02:34:22.760Z,93.80
2023-03-19T02:37:07.981Z,93.64
2023-03-19T02:39:48.682Z,95.69
2023-03-19T02:42:19.247Z,95.16
2023-03-19T02:44:47.844Z,96.74
2023-03-19T02:47:16.344Z,97.74
2023-03-19T02:49:46.166Z,97.15
2023-03-19T02:52:14.001Z,96.48
2023-03-19T02:54:42.175Z,95.82
2023-03-19T02:57:09.821Z,95.20
2023-03-19T02:59:39.160Z,95.31
2023-03-19T03:02:08.419Z,94.83
2023-03-19T03:04:37.433Z,96.01
2023-03-19T03:07:06.284Z,95.85
2023-03-19T03:09:34.559Z,95.11
2023-03-19T03:12:03.350Z,94.62
2023-03-19T03:14:31.731Z,94.84
2023-03-19T03:17:00.510Z,95.76
2023-03-19T03:19:28.172Z,96.09
2023-03-19T03:21:56.506Z,94.62
2023-03-19T03:24:24.600Z,95.12
2023-03-19T03:26:52.286Z,94.47
2023-03-19T03:29:21.622Z,94.08
2023-03-19T03:31:50.518Z,94.99
2023-03-19T03:34:18.325Z,96.23
2023-03-19T03:36:49.632Z,96.84
2023-03-19T03:39:19.167Z,97.00
2023-03-19T03:41:46.812Z,96.92
2023-03-19T03:44:14.456Z,96.43
2023-03-19T03:46:43.589Z,94.26
2023-03-19T03:49:11.787Z,94.22
2023-03-19T03:51:39.843Z,96.16
2023-03-19T03:54:08.244Z,95.90
2023-03-19T03:56:36.519Z,94.98
2023-03-19T03:59:04.088Z,94.02
2023-03-19T04:01:31.774Z,93.46
2023-03-19T04:04:00.136Z,93.12
2023-03-19T04:06:29.390Z,93.19
2023-03-19T04:09:27.257Z,94.14
2023-03-19T04:11:55.010Z,95.78
2023-03-19T04:14:23.223Z,97.23
2023-03-19T04:16:51.298Z,98.40
2023-03-19T04:19:20.379Z,99.52
2023-03-19T04:21:48.824Z,100.00
2023-03-19T04:24:17.257Z,100.00
2023-03-19T04:26:47.206Z,100.00
2023-03-19T04:29:15.722Z,100.00
2023-03-19T04:31:45.551Z,100.00
2023-03-19T04:34:13.089Z,100.00
2023-03-19T04:36:41.464Z,100.00
2023-03-19T04:39:10.115Z,100.00
2023-03-19T04:41:38.734Z,100.00
2023-03-19T04:44:25.411Z,100.00
2023-03-19T04:46:53.919Z,100.00
2023-03-19T04:49:22.897Z,100.00
2023-03-19T04:51:52.346Z,100.00
2023-03-19T04:54:21.468Z,100.00
2023-03-19T04:56:49.663Z,100.00
2023-03-19T04:59:17.875Z,100.00
2023-03-19T05:01:46.037Z,100.00
2023-03-19T05:04:16.153Z,100.00
2023-03-19T05:06:44.457Z,100.00
2023-03-19T05:09:12.207Z,100.00
2023-03-19T05:11:40.506Z,100.00
2023-03-19T05:14:16.596Z,100.00
2023-03-19T05:17:11.175Z,100.00
2023-03-19T05:20:09.739Z,100.00
2023-03-19T05:22:39.725Z,100.00
2023-03-19T05:25:08.945Z,100.00
2023-03-19T05:27:40.210Z,100.00
2023-03-19T05:30:11.132Z,100.00
2023-03-19T05:32:42.297Z,100.00
2023-03-19T05:35:17.626Z,100.00
2023-03-19T05:37:46.077Z,100.00
2023-03-19T05:40:13.936Z,100.00
2023-03-19T05:42:46.283Z,100.00
2023-03-19T05:45:17.429Z,100.00
2023-03-19T05:47:50.620Z,100.00
2023-03-19T05:50:20.429Z,100.00
2023-03-19T05:53:06.777Z,100.00
2023-03-19T05:55:36.876Z,100.00
2023-03-19T05:58:08.185Z,100.00
2023-03-19T06:00:36.842Z,100.00
2023-03-19T06:03:05.554Z,100.00
2023-03-19T06:05:52.158Z,100.00
2023-03-19T06:08:33.093Z,100.00
2023-03-19T06:11:21.098Z,100.00
2023-03-19T06:14:01.876Z,100.00
2023-03-19T06:16:32.009Z,100.00
2023-03-19T06:19:00.991Z,100.00
2023-03-19T06:21:29.739Z,100.00
2023-03-19T06:24:01.178Z,100.00
2023-03-19T06:26:35.030Z,100.00
2023-03-19T06:29:07.740Z,100.00
2023-03-19T06:31:36.385Z,100.00
2023-03-19T06:34:12.680Z,100.00
2023-03-19T06:36:42.778Z,100.00
2023-03-19T06:39:13.813Z,100.00
2023-03-19T06:41:42.364Z,98.43
2023-03-19T06:44:17.572Z,97.96
2023-03-19T06:46:45.572Z,97.72
2023-03-19T06:49:13.182Z,96.31
2023-03-19T06:51:40.929Z,96.61
2023-03-19T06:54:08.917Z,96.19
2023-03-19T06:56:36.692Z,96.03
2023-03-19T06:59:05.138Z,95.01
2023-03-19T07:01:32.981Z,93.84
2023-03-19T07:04:01.039Z,93.66
2023-03-19T07:06:30.177Z,93.29
2023-03-19T07:08:58.553Z,92.73
2023-03-19T07:11:26.423Z,93.33
2023-03-19T07:13:54.697Z,92.66
2023-03-19T07:16:23.477Z,90.83
2023-03-19T07:18:51.132Z,91.47
2023-03-19T07:21:19.262Z,91.32
2023-03-19T07:23:47.387Z,91.00
2023-03-19T07:26:15.482Z,90.76
2023-03-19T07:28:43.713Z,94.35
2023-03-19T07:31:11.882Z,94.07
2023-03-19T07:33:40.451Z,94.50
2023-03-19T07:36:08.896Z,95.60
2023-03-19T07:38:36.576Z,95.86
2023-03-19T07:41:04.483Z,95.47
2023-03-19T07:43:32.444Z,94.05
2023-03-19T07:46:01.614Z,95.08
2023-03-19T07:48:29.737Z,91.94
2023-03-19T07:50:57.948Z,90.12
2023-03-19T07:53:26.177Z,89.55
2023-03-19T07:55:53.835Z,86.95
2023-03-19T07:58:21.677Z,85.19
2023-03-19T08:00:49.886Z,83.98
2023-03-19T08:03:18.484Z,88.30
2023-03-19T08:05:50.136Z,89.14
2023-03-19T08:08:18.139Z,91.34
2023-03-19T08:10:47.532Z,93.60
2023-03-19T08:13:15.208Z,96.93
2023-03-19T08:15:42.900Z,95.17
2023-03-19T08:18:11.601Z,94.96
2023-03-19T08:20:39.199Z,93.20
2023-03-19T08:23:07.422Z,94.91
2023-03-19T08:25:35.037Z,92.49
2023-03-19T08:28:03.105Z,94.10
2023-03-19T08:30:32.271Z,93.03
2023-03-19T08:33:00.188Z,91.45
2023-03-19T08:35:28.265Z,89.05
2023-03-19T08:37:57.030Z,90.20
2023-03-19T08:40:25.722Z,88.12
2023-03-19T08:42:54.622Z,88.50
2023-03-19T08:45:23.880Z,87.21
2023-03-19T08:47:52.057Z,87.65
2023-03-19T08:50:19.923Z,82.38
2023-03-19T08:52:48.579Z,81.16
2023-03-19T08:55:17.285Z,81.73
2023-03-19T08:57:45.052Z,81.27
2023-03-19T09:00:13.503Z,83.24
2023-03-19T09:02:41.230Z,85.15
2023-03-19T09:05:09.323Z,82.63
2023-03-19T09:07:37.396Z,82.54
2023-03-19T09:10:05.800Z,83.90
2023-03-19T09:12:33.979Z,81.76
2023-03-19T09:15:02.124Z,81.90
2023-03-19T09:17:29.841Z,82.22
2023-03-19T09:19:58.890Z,79.33
2023-03-19T09:22:26.599Z,78.11
2023-03-19T09:24:54.209Z,74.98
2023-03-19T09:27:22.285Z,71.78
2023-03-19T09:29:50.682Z,73.55
2023-03-19T09:32:18.340Z,71.78
2023-03-19T09:34:47.788Z,69.39
2023-03-19T09:37:15.864Z,71.34
2023-03-19T09:39:44.577Z,67.67
2023-03-19T09:42:31.078Z,70.19
2023-03-19T09:44:59.041Z,66.59
2023-03-19T09:47:35.443Z,68.14
2023-03-19T09:50:16.420Z,74.87
2023-03-19T09:53:23.101Z,74.36
2023-03-19T09:55:54.519Z,69.44
2023-03-19T09:58:30.921Z,72.05
2023-03-19T10:01:01.150Z,75.62
2023-03-19T10:03:51.482Z,72.17
2023-03-19T10:06:26.874Z,67.14
2023-03-19T10:09:20.101Z,60.25
2023-03-19T10:11:57.852Z,61.13
2023-03-19T10:14:37.896Z,58.96
2023-03-19T10:17:12.800Z,55.24
2023-03-19T10:20:16.696Z,52.43
2023-03-19T10:22:55.553Z,52.24
2023-03-19T10:25:27.846Z,51.27
2023-03-19T10:28:01.646Z,46.35
2023-03-19T10:30:32.727Z,42.62
2023-03-19T10:33:24.916Z,42.53
2023-03-19T10:36:06.440Z,40.76
2023-03-19T10:38:40.662Z,41.83
2023-03-19T10:41:23.865Z,40.86
2023-03-19T10:44:04.388Z,39.34
2023-03-19T10:46:40.651Z,37.96
2023-03-19T10:49:16.533Z,38.13
2023-03-19T10:51:46.307Z,38.50
2023-03-19T10:54:24.949Z,36.24
2023-03-19T10:56:57.489Z,34.28
2023-03-19T10:59:30.984Z,35.98
2023-03-19T11:02:00.076Z,34.40
2023-03-19T11:04:29.859Z,35.19
2023-03-19T11:07:09.804Z,33.99
2023-03-19T11:09:41.702Z,32.29
2023-03-19T11:12:29.585Z,30.89
2023-03-19T11:14:58.886Z,32.70
2023-03-19T11:17:57.460Z,31.95
2023-03-19T11:20:35.581Z,32.22
2023-03-19T11:23:09.427Z,32.92
2023-03-19T11:25:38.915Z,32.95
2023-03-19T11:28:09.589Z,32.77
2023-03-19T11:30:44.118Z,31.29
2023-03-19T11:33:31.800Z,29.81
2023-03-19T11:36:14.111Z,29.99
2023-03-19T11:39:19.847Z,29.48
2023-03-19T11:42:21.943Z,30.17
2023-03-19T11:45:20.767Z,30.97
2023-03-19T11:48:20.321Z,30.12
2023-03-19T11:50:59.268Z,29.18
2023-03-19T11:53:32.599Z,30.01
2023-03-19T11:56:52.946Z,29.87
2023-03-19T11:59:36.671Z,30.00
2023-03-19T12:02:07.472Z,30.65
2023-03-19T12:05:02.955Z,28.71
2023-03-19T12:07:43.396Z,27.70
2023-03-19T12:10:30.440Z,28.25
2023-03-19T12:13:19.741Z,29.89
2023-03-19T12:16:06.018Z,34.29
2023-03-19T12:18:52.455Z,35.98
2023-03-19T12:21:29.888Z,36.02
2023-03-19T12:24:00.697Z,38.08
2023-03-19T12:26:50.985Z,37.78
2023-03-19T12:29:31.222Z,36.75
2023-03-19T12:32:10.276Z,37.71
2023-03-19T12:34:46.599Z,39.55
2023-03-19T12:37:35.654Z,39.55
2023-03-19T12:40:35.022Z,39.38
2023-03-19T12:43:07.930Z,41.64
2023-03-19T12:45:51.325Z,40.67
2023-03-19T12:48:41.720Z,40.55
2023-03-19T12:51:13.899Z,42.42
2023-03-19T12:53:56.459Z,41.34
2023-03-19T12:56:59.950Z,40.02
2023-03-19T12:59:59.961Z,38.42
2023-03-19T13:02:54.568Z,36.53
2023-03-19T13:06:08.877Z,35.14
2023-03-19T13:09:05.047Z,36.79
2023-03-19T13:11:39.387Z,35.88
2023-03-19T13:14:26.832Z,33.93
2023-03-19T13:17:05.213Z,34.04
2023-03-19T13:19:48.205Z,31.21
2023-03-19T13:22:22.216Z,31.24
2023-03-19T13:24:52.313Z,32.83
2023-03-19T13:27:36.422Z,33.17
2023-03-19T13:30:17.885Z,33.40
2023-03-19T13:33:02.373Z,32.67
2023-03-19T13:35:40.809Z,29.84
2023-03-19T13:38:15.507Z,28.49
2023-03-19T13:41:01.275Z,27.63
2023-03-19T13:43:29.583Z,27.96
2023-03-19T13:46:12.372Z,30.66
2023-03-19T13:48:45.798Z,32.17
2023-03-19T13:51:20.399Z,33.96
2023-03-19T13:53:54.818Z,30.65
2023-03-19T13:56:29.970Z,28.26
2023-03-19T13:59:24.355Z,27.10
2023-03-19T14:01:52.805Z,31.56
2023-03-19T14:04:35.303Z,32.51
2023-03-19T14:07:19.304Z,35.12
2023-03-19T14:10:00.183Z,38.40
2023-03-19T14:12:39.977Z,38.59
2023-03-19T14:15:11.332Z,39.37
2023-03-19T14:17:54.985Z,40.23
2023-03-19T14:20:37.556Z,41.39
2023-03-19T14:23:08.921Z,40.64
2023-03-19T14:26:07.325Z,40.09
2023-03-19T14:29:13.529Z,40.15
2023-03-19T14:31:53.691Z,40.19
2023-03-19T14:34:22.428Z,39.33
2023-03-19T14:37:17.761Z,38.96
2023-03-19T14:39:53.022Z,38.21
2023-03-19T14:42:27.273Z,38.46
2023-03-19T14:45:14.535Z,38.13
2023-03-19T14:48:21.060Z,38.89
2023-03-19T14:51:07.350Z,39.42
2023-03-19T14:53:46.855Z,42.78
2023-03-19T14:56:24.372Z,43.52
2023-03-19T14:58:57.010Z,45.15
2023-03-19T15:01:30.077Z,44.25
2023-03-19T15:04:04.881Z,44.80
2023-03-19T15:06:36.508Z,44.64
2023-03-19T15:09:16.253Z,43.73
2023-03-19T15:11:43.883Z,45.38
2023-03-19T15:14:33.661Z,45.85
2023-03-19T15:17:04.860Z,46.84
2023-03-19T15:19:35.956Z,47.67
2023-03-19T15:22:17.093Z,49.02
2023-03-19T15:24:45.050Z,48.67
2023-03-19T15:27:24.596Z,48.74
2023-03-19T15:29:53.976Z,49.37
2023-03-19T15:33:09.021Z,49.88
2023-03-19T15:35:34.037Z,49.65
2023-03-19T15:38:09.375Z,49.90
2023-03-19T15:40:39.160Z,49.87
2023-03-19T15:43:11.226Z,49.98
2023-03-19T15:45:42.755Z,49.14
2023-03-19T15:48:25.637Z,49.81
2023-03-19T15:51:01.594Z,50.07
2023-03-19T15:53:33.584Z,49.72
2023-03-19T15:56:03.642Z,48.86
2023-03-19T15:58:40.148Z,48.69
2023-03-19T16:01:10.807Z,48.99
2023-03-19T16:03:41.819Z,49.70
2023-03-19T16:06:29.413Z,49.02
2023-03-19T16:09:15.660Z,49.32
2023-03-19T16:11:46.150Z,49.22
2023-03-19T16:14:14.227Z,50.67
2023-03-19T16:16:45.343Z,50.85
2023-03-19T16:19:32.777Z,52.18
2023-03-19T16:22:02.207Z,53.03
2023-03-19T16:24:43.128Z,53.00
2023-03-19T16:27:14.205Z,53.39
2023-03-19T16:29:46.561Z,53.86
2023-03-19T16:32:22.961Z,53.66
2023-03-19T16:34:56.046Z,54.91
2023-03-19T16:37:56.441Z,55.01
2023-03-19T16:40:25.239Z,55.48
2023-03-19T16:42:56.247Z,55.26
2023-03-19T16:45:29.637Z,55.88
2023-03-19T16:48:01.002Z,55.87
2023-03-19T16:50:32.095Z,54.91
2023-03-19T16:53:02.280Z,55.62
2023-03-19T16:55:37.027Z,55.21
2023-03-19T16:58:16.267Z,56.32
2023-03-19T17:00:45.318Z,57.00
2023-03-19T17:03:15.891Z,56.93
2023-03-19T17:05:46.111Z,56.41
2023-03-19T17:08:15.014Z,56.57
2023-03-19T17:10:49.281Z,56.89
2023-03-19T17:13:28.128Z,57.11
2023-03-19T17:16:02.841Z,56.79
2023-03-19T17:18:35.276Z,57.23
2023-03-19T17:21:11.239Z,57.43
2023-03-19T17:23:39.336Z,58.31
2023-03-19T17:26:19.897Z,57.76
2023-03-19T17:28:48.287Z,57.85
2023-03-19T17:31:25.733Z,58.33
2023-03-19T17:34:01.395Z,59.50
2023-03-19T17:36:29.478Z,61.28
2023-03-19T17:38:57.551Z,63.56
2023-03-19T17:41:26.042Z,70.50
2023-03-19T17:43:54.743Z,71.48
2023-03-19T17:46:25.294Z,69.38
2023-03-19T17:48:54.095Z,68.97
2023-03-19T17:51:23.935Z,70.24
2023-03-19T17:53:54.350Z,77.02
2023-03-19T17:56:25.631Z,77.71
2023-03-19T17:58:54.672Z,82.76
2023-03-19T18:01:27.345Z,79.53
2023-03-19T18:03:57.977Z,81.41
2023-03-19T18:06:31.955Z,83.21
2023-03-19T18:08:59.630Z,82.89
2023-03-19T18:11:27.837Z,81.97
2023-03-19T18:13:56.021Z,80.76
2023-03-19T18:16:29.173Z,81.98
2023-03-19T18:19:01.245Z,81.40
2023-03-19T18:21:31.146Z,83.00
2023-03-19T18:23:58.943Z,85.35
2023-03-19T18:26:27.141Z,88.29
2023-03-19T18:28:55.592Z,90.85
2023-03-19T18:31:25.892Z,93.32
2023-03-19T18:34:02.997Z,93.33
2023-03-19T18:36:32.988Z,92.67
2023-03-19T18:39:00.759Z,93.68
2023-03-19T18:41:29.686Z,91.75
2023-03-19T18:44:08.144Z,94.08
2023-03-19T18:46:37.797Z,93.28
2023-03-19T18:49:24.851Z,93.66
2023-03-19T18:52:08.664Z,94.84
2023-03-19T18:54:36.835Z,97.22
2023-03-19T18:57:05.871Z,96.33
2023-03-19T18:59:34.065Z,97.08
2023-03-19T19:02:27.003Z,98.85
2023-03-19T19:04:55.032Z,100.00
2023-03-19T19:07:22.678Z,100.00
2023-03-19T19:09:51.592Z,100.00
2023-03-19T19:12:20.012Z,100.00
2023-03-19T19:14:48.724Z,100.00
2023-03-19T19:17:19.843Z,100.00
2023-03-19T19:19:48.336Z,100.00
2023-03-19T19:22:18.172Z,100.00
2023-03-19T19:24:46.659Z,100.00
2023-03-19T19:27:20.967Z,100.00
2023-03-19T19:29:50.173Z,100.00
2023-03-19T19:32:26.475Z,100.00
2023-03-19T19:34:54.690Z,100.00
2023-03-19T19:37:23.683Z,100.00
2023-03-19T19:39:53.219Z,100.00
2023-03-19T19:42:23.466Z,100.00
2023-03-19T19:44:54.270Z,100.00
2023-03-19T19:47:22.122Z,100.00
2023-03-19T19:49:50.950Z,100.00
2023-03-19T19:52:19.873Z,100.00
2023-03-19T19:54:48.445Z,100.00
2023-03-19T19:57:27.209Z,100.00
2023-03-19T19:59:56.010Z,100.00
2023-03-19T20:02:28.823Z,100.00
2023-03-19T20:04:59.099Z,100.00
2023-03-19T20:07:27.427Z,100.00
2023-03-19T20:09:55.141Z,100.00
2023-03-19T20:12:31.147Z,100.00
2023-03-19T20:15:00.463Z,100.00
2023-03-19T20:17:29.042Z,100.00
2023-03-19T20:19:57.559Z,100.00
2023-03-19T20:22:25.722Z,100.00
2023-03-19T20:24:53.827Z,100.00
2023-03-19T20:27:28.867Z,100.00
2023-03-19T20:29:56.936Z,100.00
2023-03-19T20:32:32.797Z,100.00
2023-03-19T20:35:02.036Z,100.00
2023-03-19T20:37:31.150Z,100.00
2023-03-19T20:39:59.705Z,100.00
2023-03-19T20:42:32.094Z,100.00
2023-03-19T20:45:01.529Z,100.00
2023-03-19T20:47:29.424Z,100.00
2023-03-19T20:49:57.410Z,100.00
2023-03-19T20:52:26.096Z,100.00
2023-03-19T20:54:54.837Z,100.00
2023-03-19T20:57:29.313Z,100.00
2023-03-19T21:00:02.104Z,100.00
2023-03-19T21:02:29.965Z,100.00
2023-03-19T21:04:58.727Z,100.00
2023-03-19T21:07:34.665Z,100.00
2023-03-19T21:10:07.891Z,100.00
2023-03-19T21:12:36.579Z,100.00
2023-03-19T21:15:04.458Z,100.00
2023-03-19T21:17:32.153Z,100.00
2023-03-19T21:20:00.758Z,100.00
2023-03-19T21:22:30.782Z,100.00
2023-03-19T21:25:06.171Z,100.00
2023-03-19T21:27:36.980Z,100.00
2023-03-19T21:30:05.948Z,100.00
2023-03-19T21:32:33.693Z,100.00
2023-03-19T21:35:01.814Z,100.00
2023-03-19T21:37:29.816Z,100.00
2023-03-19T21:39:57.968Z,100.00
2023-03-19T21:42:26.892Z,100.00
2023-03-19T21:44:59.598Z,100.00
2023-03-19T21:47:27.298Z,100.00
2023-03-19T21:49:56.504Z,100.00
2023-03-19T21:52:24.190Z,100.00
2023-03-19T21:54:52.396Z,100.00
2023-03-19T21:57:20.780Z,100.00
2023-03-19T21:59:48.925Z,100.00
2023-03-19T22:02:23.348Z,100.00
2023-03-19T22:04:51.389Z,100.00
2023-03-19T22:07:19.105Z,100.00
2023-03-19T22:09:46.760Z,100.00
2023-03-19T22:12:26.085Z,100.00
2023-03-19T22:14:54.820Z,100.00
2023-03-19T22:17:26.160Z,100.00
2023-03-19T22:19:53.812Z,100.00
2023-03-19T22:22:21.939Z,100.00
2023-03-19T22:24:49.734Z,100.00
2023-03-19T22:27:17.884Z,100.00
2023-03-19T22:29:47.038Z,100.00
2023-03-19T22:32:18.068Z,100.00
2023-03-19T22:34:45.938Z,100.00
2023-03-19T22:37:29.258Z,100.00
2023-03-19T22:39:57.525Z,100.00
2023-03-19T22:42:26.880Z,100.00
2023-03-19T22:44:54.868Z,100.00
2023-03-19T22:47:26.199Z,100.00
2023-03-19T22:49:53.971Z,100.00
2023-03-19T22:52:22.363Z,100.00
2023-03-19T22:54:53.100Z,100.00
2023-03-19T22:57:20.909Z,100.00
2023-03-19T22:59:49.050Z,100.00
2023-03-19T23:02:18.216Z,100.00
2023-03-19T23:04:46.980Z,100.00
2023-03-19T23:07:15.586Z,100.00
2023-03-19T23:09:43.582Z,100.00
2023-03-19T23:12:13.741Z,100.00
2023-03-19T23:14:41.570Z,100.00
2023-03-19T23:17:19.761Z,100.00
2023-03-19T23:19:48.513Z,100.00
2023-03-19T23:22:17.364Z,100.00
2023-03-19T23:24:45.514Z,100.00
2023-03-19T23:27:25.206Z,100.00
2023-03-19T23:29:53.702Z,100.00
2023-03-19T23:32:22.024Z,100.00
2023-03-19T23:34:59.563Z,100.00
2023-03-19T23:37:29.200Z,100.00
2023-03-19T23:39:57.965Z,100.00
2023-03-19T23:42:29.698Z,100.00
2023-03-19T23:45:03.677Z,100.00
2023-03-19T23:47:31.829Z,100.00
2023-03-19T23:49:59.984Z,100.00
2023-03-19T23:52:27.752Z,100.00
2023-03-19T23:54:57.053Z,100.00
2023-03-19T23:57:26.977Z,100.00
2023-03-19T23:59:55.848Z,100.00
